Time;durP1;ratioP1;P1;durP2;ratioP2;P2;SDS_P1;SDS_P2;PMS_P1;PMS_P2;Temp;Humidity;BMP_temperature;BMP_pressure;BME280_temperature;BME280_humidity;BME280_pressure;Samples;Min_cycle;Max_cycle;Signal;HPM_P1;HPM_P2
2022/09/01 00:00:17;;;;;;;16.75;7.88;;;;;;;25.17;71.37;100680.72;2095317;28;20354;-71
2022/09/01 00:01:41;;;;;;;19.30;7.88;;;;;;;25.16;71.40;100676.25;2102700;28;20117;-70
2022/09/01 00:03:03;;;;;;;17.33;7.97;;;;;;;25.16;71.26;100675.38;2103960;28;20531;-70
2022/09/01 00:04:27;;;;;;;12.75;7.03;;;;;;;25.15;71.33;100682.59;2111981;28;20712;-70
2022/09/01 00:05:53;;;;;;;17.08;7.35;;;;;;;25.15;71.12;100688.00;2093438;28;20044;-70
2022/09/01 00:07:16;;;;;;;17.65;7.45;;;;;;;25.14;70.98;100682.69;2097895;28;20569;-70
2022/09/01 00:08:39;;;;;;;14.05;7.18;;;;;;;25.13;71.18;100684.53;2099746;28;20135;-70
2022/09/01 00:10:06;;;;;;;13.27;7.18;;;;;;;25.11;71.10;100683.69;2106151;28;20055;-70
2022/09/01 00:11:29;;;;;;;15.13;7.43;;;;;;;25.09;70.90;100685.59;2097985;28;20135;-70
2022/09/01 00:12:54;;;;;;;17.10;7.82;;;;;;;25.10;70.79;100681.06;2097808;28;20044;-70
2022/09/01 00:14:15;;;;;;;17.27;7.28;;;;;;;25.04;70.78;100682.22;2095360;28;20052;-70
2022/09/01 00:15:38;;;;;;;12.70;7.38;;;;;;;24.99;70.71;100687.84;2094668;28;20109;-70
2022/09/01 00:17:02;;;;;;;13.05;7.30;;;;;;;24.98;70.68;100682.50;2100904;28;20661;-71
2022/09/01 00:18:23;;;;;;;14.27;7.50;;;;;;;24.93;70.66;100682.72;2103632;28;20107;-70
2022/09/01 00:19:46;;;;;;;13.70;7.72;;;;;;;24.90;71.00;100684.66;2108584;28;20102;-70
2022/09/01 00:21:09;;;;;;;15.43;7.65;;;;;;;24.88;70.75;100675.72;2105070;28;20063;-71
2022/09/01 00:22:32;;;;;;;18.45;7.28;;;;;;;24.85;71.01;100676.75;2103659;28;20055;-70
2022/09/01 00:23:55;;;;;;;18.13;7.97;;;;;;;24.85;71.17;100675.84;2103735;28;20051;-70
2022/09/01 00:25:19;;;;;;;17.88;8.48;;;;;;;24.86;70.92;100683.03;2092267;28;20145;-70
2022/09/01 00:26:40;;;;;;;17.13;7.80;;;;;;;24.85;70.88;100675.84;2096369;28;20665;-70
2022/09/01 00:28:05;;;;;;;22.92;8.35;;;;;;;24.84;70.83;100680.38;2086946;28;20493;-70
2022/09/01 00:29:28;;;;;;;14.77;7.88;;;;;;;24.78;71.17;100671.69;2109648;28;20106;-70
2022/09/01 00:30:50;;;;;;;12.77;7.65;;;;;;;24.73;71.50;100681.81;2099664;28;20071;-70
2022/09/01 00:32:13;;;;;;;17.45;8.35;;;;;;;24.71;71.42;100681.88;2104444;28;20051;-70
2022/09/01 00:33:35;;;;;;;15.65;7.80;;;;;;;24.70;71.39;100681.94;2096998;28;20204;-71
2022/09/01 00:34:57;;;;;;;13.05;8.25;;;;;;;24.68;71.23;100675.75;2096427;28;20066;-70
2022/09/01 00:36:20;;;;;;;12.93;7.85;;;;;;;24.63;71.59;100668.69;2103563;28;20044;-70
2022/09/01 00:37:42;;;;;;;14.93;7.53;;;;;;;24.64;71.81;100672.28;2095228;28;20455;-71
2022/09/01 00:39:06;;;;;;;14.45;7.50;;;;;;;24.62;71.84;100677.75;2100646;28;20047;-70
2022/09/01 00:40:30;;;;;;;22.60;8.27;;;;;;;24.63;72.24;100675.91;2095623;28;20036;-70
2022/09/01 00:41:52;;;;;;;15.02;7.68;;;;;;;24.66;72.14;100672.22;2095155;28;20049;-70
2022/09/01 00:43:20;;;;;;;15.05;7.70;;;;;;;24.68;71.82;100673.03;2095085;28;20064;-70
2022/09/01 00:44:42;;;;;;;15.10;8.10;;;;;;;24.65;71.78;100667.75;2090559;28;20040;-70
2022/09/01 00:46:05;;;;;;;16.17;8.27;;;;;;;24.65;71.93;100673.16;2094110;28;20052;-70
2022/09/01 00:47:27;;;;;;;11.73;7.05;;;;;;;24.63;72.04;100674.09;2086054;28;20063;-70
2022/09/01 00:48:53;;;;;;;15.20;8.07;;;;;;;24.65;71.64;100668.63;2092186;28;20464;-70
2022/09/01 00:50:18;;;;;;;21.88;9.05;;;;;;;24.66;71.66;100670.41;2090823;28;20044;-70
2022/09/01 00:51:43;;;;;;;12.65;7.60;;;;;;;24.67;71.77;100672.16;2087012;28;20100;-70
2022/09/01 00:53:08;;;;;;;13.75;7.88;;;;;;;24.62;71.68;100676.84;2097998;28;20044;-70
2022/09/01 00:54:33;;;;;;;13.02;7.47;;;;;;;24.60;71.71;100671.56;2101386;28;20529;-71
2022/09/01 00:55:56;;;;;;;13.77;8.18;;;;;;;24.60;71.90;100671.56;2089257;28;20527;-71
2022/09/01 00:57:18;;;;;;;15.43;8.45;;;;;;;24.62;72.11;100672.34;2096499;28;20055;-70
2022/09/01 00:58:43;;;;;;;17.30;8.77;;;;;;;24.68;71.70;100667.63;2087265;28;20045;-70
2022/09/01 01:00:10;;;;;;;15.77;8.73;;;;;;;24.67;71.77;100668.59;2092865;28;20053;-70
2022/09/01 01:01:33;;;;;;;11.85;7.50;;;;;;;24.66;71.98;100672.22;2088509;28;20040;-70
2022/09/01 01:02:58;;;;;;;15.68;8.95;;;;;;;24.69;72.14;100672.06;2094977;28;20048;-70
2022/09/01 01:04:20;;;;;;;16.70;8.52;;;;;;;24.71;71.85;100668.38;2095132;28;20083;-70
2022/09/01 01:05:52;;;;;;;15.18;8.13;;;;;;;24.71;71.99;100667.50;2095867;28;20066;-70
2022/09/01 01:07:17;;;;;;;18.17;8.52;;;;;;;24.66;72.40;100661.41;2105875;28;20520;-70
2022/09/01 01:08:48;;;;;;;13.48;8.73;;;;;;;24.68;72.20;100665.78;2088739;28;20083;-70
2022/09/01 01:10:13;;;;;;;16.70;7.75;;;;;;;24.69;72.27;100662.16;2111408;28;20104;-70
2022/09/01 01:11:36;;;;;;;12.02;7.70;;;;;;;24.69;72.18;100666.66;2102971;28;20056;-70
2022/09/01 01:13:00;;;;;;;18.52;8.43;;;;;;;24.65;71.95;100663.25;2094850;28;20098;-70
2022/09/01 01:14:26;;;;;;;12.80;7.75;;;;;;;24.65;72.08;100659.66;2092774;28;20052;-70
2022/09/01 01:15:48;;;;;;;17.42;8.27;;;;;;;24.63;72.38;100655.19;2087012;28;20091;-70
2022/09/01 01:17:11;;;;;;;15.77;8.25;;;;;;;24.63;72.31;100662.41;2086485;28;20047;-71
2022/09/01 01:18:33;;;;;;;15.82;8.15;;;;;;;24.61;71.97;100665.19;2084139;28;20076;-71
2022/09/01 01:23:39;;;;;;;13.02;7.93;;;;;;;24.59;72.31;100660.81;2063621;28;20062;-71
2022/09/01 01:25:02;;;;;;;17.58;7.75;;;;;;;24.61;72.22;100662.47;2093477;28;20076;-70
2022/09/01 01:26:26;;;;;;;15.65;7.47;;;;;;;24.62;72.14;100663.34;2086128;28;20329;-71
2022/09/01 01:27:48;;;;;;;19.08;7.85;;;;;;;24.65;71.89;100662.38;2086456;28;20132;-70
2022/09/01 01:29:11;;;;;;;22.70;8.45;;;;;;;24.66;71.88;100670.41;2083538;28;20045;-70
2022/09/01 01:30:34;;;;;;;14.75;8.02;;;;;;;24.65;71.92;100667.75;2084092;28;20100;-70
2022/09/01 01:31:57;;;;;;;13.40;7.72;;;;;;;24.62;71.95;100664.25;2092516;28;20071;-71
2022/09/01 01:33:21;;;;;;;19.85;8.88;;;;;;;24.63;72.15;100663.31;2088267;28;20052;-70
2022/09/01 01:34:45;;;;;;;17.42;9.10;;;;;;;24.65;72.13;100651.56;2102081;28;20056;-70
2022/09/01 01:36:11;;;;;;;20.42;8.25;;;;;;;24.65;72.49;100655.16;2093442;28;20052;-70
2022/09/01 01:37:35;;;;;;;14.27;8.25;;;;;;;24.65;72.18;100660.53;2093183;28;20052;-71
2022/09/01 01:39:00;;;;;;;20.27;8.02;;;;;;;24.62;72.60;100656.16;2100763;28;20167;-70
2022/09/01 01:40:24;;;;;;;18.25;8.25;;;;;;;24.61;72.59;100665.19;2096624;28;20070;-70
2022/09/01 01:41:49;;;;;;;13.07;7.72;;;;;;;24.61;72.71;100657.09;2086379;28;20066;-70
2022/09/01 01:43:21;;;;;;;16.58;8.20;;;;;;;24.62;73.07;100653.44;2092870;28;20092;-71
2022/09/01 01:44:46;;;;;;;15.80;8.50;;;;;;;24.63;73.04;100652.50;2087450;28;20128;-70
2022/09/01 01:46:09;;;;;;;18.00;8.52;;;;;;;24.62;72.68;100649.88;2091416;28;20052;-70
2022/09/01 01:47:34;;;;;;;16.20;8.48;;;;;;;24.61;72.78;100657.09;2086941;28;20037;-70
2022/09/01 01:48:57;;;;;;;16.42;8.20;;;;;;;24.62;72.35;100652.56;2086334;28;20041;-70
2022/09/01 01:50:20;;;;;;;15.20;8.02;;;;;;;24.65;72.48;100648.88;2083782;28;20073;-70
2022/09/01 01:51:44;;;;;;;15.48;8.68;;;;;;;24.67;72.53;100657.78;2097621;28;20041;-70
2022/09/01 01:53:10;;;;;;;19.05;8.55;;;;;;;24.71;72.75;100656.69;2091211;28;20047;-70
2022/09/01 01:54:32;;;;;;;15.70;8.52;;;;;;;24.71;72.69;100651.28;2084155;28;20040;-70
2022/09/01 01:55:59;;;;;;;15.90;8.20;;;;;;;24.70;72.68;100649.53;2083446;28;20041;-70
2022/09/01 01:57:30;;;;;;;14.13;7.85;;;;;;;24.69;72.93;100654.03;2085406;28;20057;-70
2022/09/01 01:58:55;;;;;;;13.82;8.23;;;;;;;24.69;72.86;100654.03;2091102;28;20048;-70
2022/09/01 02:00:22;;;;;;;19.20;8.63;;;;;;;24.73;73.05;100649.41;2083902;28;20140;-70
2022/09/01 02:01:49;;;;;;;16.98;8.05;;;;;;;24.75;73.23;100647.50;2099061;28;20075;-71
2022/09/01 02:03:18;;;;;;;14.77;7.82;;;;;;;24.76;73.39;100649.25;2094954;28;20191;-70
2022/09/01 02:04:40;;;;;;;15.27;7.95;;;;;;;24.75;73.57;100644.78;2090949;28;20083;-70
2022/09/01 02:06:08;;;;;;;16.75;8.73;;;;;;;24.78;73.35;100647.38;2092346;28;20090;-70
2022/09/01 02:07:31;;;;;;;16.77;8.45;;;;;;;24.80;73.39;100650.88;2090647;28;20049;-70
2022/09/01 02:08:57;;;;;;;19.45;8.18;;;;;;;24.82;73.59;100654.38;2084128;28;20699;-71
2022/09/01 02:10:18;;;;;;;15.85;8.30;;;;;;;24.81;73.48;100647.25;2084462;28;20151;-71
2022/09/01 02:11:44;;;;;;;19.88;7.22;;;;;;;24.80;73.67;100650.88;2082399;28;20107;-70
2022/09/01 02:13:07;;;;;;;19.75;8.45;;;;;;;24.77;73.43;100662.69;2086621;28;20055;-70
2022/09/01 02:14:30;;;;;;;14.63;8.18;;;;;;;24.73;73.29;100654.81;2091917;28;20070;-70
2022/09/01 02:15:54;;;;;;;16.40;8.68;;;;;;;24.72;73.63;100647.66;2085991;28;20044;-70
2022/09/01 02:17:17;;;;;;;19.75;8.25;;;;;;;24.71;73.42;100644.06;2084851;28;20052;-71
2022/09/01 02:18:41;;;;;;;15.18;9.10;;;;;;;24.73;73.57;100644.88;2091374;28;20126;-70
2022/09/01 02:20:04;;;;;;;14.57;8.27;;;;;;;24.75;73.96;100642.09;2099575;28;20121;-71
2022/09/01 02:21:28;;;;;;;17.33;10.18;;;;;;;24.77;74.16;100641.09;2096907;28;20431;-70
2022/09/01 02:22:50;;;;;;;15.05;8.63;;;;;;;24.78;74.19;100642.84;2086098;28;20056;-70
2022/09/01 02:24:14;;;;;;;18.35;8.45;;;;;;;24.78;74.25;100647.38;2091479;28;20041;-70
2022/09/01 02:25:36;;;;;;;21.15;8.30;;;;;;;24.74;73.96;100643.94;2085905;28;20057;-71
2022/09/01 02:27:01;;;;;;;18.42;8.48;;;;;;;24.74;74.26;100651.16;2093367;28;20052;-70
2022/09/01 02:28:26;;;;;;;15.80;8.68;;;;;;;24.75;74.59;100652.91;2086039;28;20489;-70
2022/09/01 02:29:50;;;;;;;20.48;8.55;;;;;;;24.76;74.74;100635.75;2089771;28;20185;-70
2022/09/01 02:31:13;;;;;;;19.27;9.10;;;;;;;24.76;74.72;100644.72;2088681;28;20079;-71
2022/09/01 02:32:36;;;;;;;14.30;7.65;;;;;;;24.78;74.71;100647.38;2085620;28;20526;-70
2022/09/01 02:33:59;;;;;;;17.83;8.18;;;;;;;24.80;74.74;100640.09;2093994;28;20071;-70
2022/09/01 02:35:22;;;;;;;15.63;8.20;;;;;;;24.83;74.76;100638.09;2095202;28;20051;-71
2022/09/01 02:36:48;;;;;;;17.85;9.13;;;;;;;24.86;74.55;100635.28;2094203;28;20051;-71
2022/09/01 02:38:14;;;;;;;19.02;8.88;;;;;;;24.89;74.53;100637.88;2094970;28;20048;-70
2022/09/01 02:39:36;;;;;;;18.50;8.90;;;;;;;24.90;74.61;100633.34;2089713;28;20048;-70
2022/09/01 02:41:00;;;;;;;18.73;9.25;;;;;;;24.91;74.65;100632.41;2085522;28;20497;-70
2022/09/01 02:42:25;;;;;;;17.10;9.88;;;;;;;24.89;74.77;100634.25;2089972;28;20134;-70
2022/09/01 02:43:48;;;;;;;14.30;8.25;;;;;;;24.85;74.45;100635.34;2085917;28;20072;-71
2022/09/01 02:45:15;;;;;;;21.23;9.45;;;;;;;24.85;74.47;100633.53;2085719;28;20049;-70
2022/09/01 02:46:36;;;;;;;18.63;9.85;;;;;;;24.89;74.38;100640.56;2095965;28;20039;-71
2022/09/01 02:48:00;;;;;;;13.82;8.52;;;;;;;24.92;74.32;100642.25;2088486;28;20048;-70
2022/09/01 02:49:28;;;;;;;20.50;8.90;;;;;;;24.97;74.50;100637.53;2082071;28;20094;-71
2022/09/01 02:50:52;;;;;;;20.98;8.48;;;;;;;24.98;74.47;100642.84;2084963;28;20072;-70
2022/09/01 02:52:16;;;;;;;15.82;8.57;;;;;;;25.00;74.51;100640.09;2084163;28;20405;-70
2022/09/01 02:53:38;;;;;;;14.23;9.27;;;;;;;24.98;74.21;100644.69;2086388;28;20090;-70
2022/09/01 02:55:02;;;;;;;19.33;8.70;;;;;;;24.92;74.34;100642.25;2085665;28;20489;-70
2022/09/01 02:56:26;;;;;;;16.60;7.60;;;;;;;24.88;74.53;100635.19;2091722;28;20457;-71
2022/09/01 02:57:56;;;;;;;19.08;8.68;;;;;;;24.85;74.45;100638.06;2086305;28;20074;-70
2022/09/01 02:59:20;;;;;;;18.75;9.10;;;;;;;24.83;74.41;100639.94;2096818;28;20040;-71
2022/09/01 03:00:44;;;;;;;19.98;9.57;;;;;;;24.81;74.61;100634.59;2088114;28;20072;-70
2022/09/01 03:02:07;;;;;;;20.40;9.40;;;;;;;24.81;74.92;100639.16;2091717;28;20064;-71
2022/09/01 03:03:28;;;;;;;17.73;9.02;;;;;;;24.79;74.91;100641.03;2093714;28;20047;-71
2022/09/01 03:04:54;;;;;;;18.42;8.85;;;;;;;24.80;74.87;100645.50;2093560;28;20143;-71
2022/09/01 03:06:18;;;;;;;15.30;8.63;;;;;;;24.79;74.89;100638.31;2088771;28;20110;-70
2022/09/01 03:07:41;;;;;;;22.08;9.40;;;;;;;24.80;74.87;100640.09;2086889;28;20049;-70
2022/09/01 03:09:07;;;;;;;23.27;9.25;;;;;;;24.78;75.08;100639.25;2091478;28;20094;-70
2022/09/01 03:10:32;;;;;;;14.52;8.90;;;;;;;24.76;75.25;100630.34;2094769;28;20097;-70
2022/09/01 03:11:55;;;;;;;18.85;8.95;;;;;;;24.74;75.03;100633.16;2085890;28;20053;-70
2022/09/01 03:13:24;;;;;;;15.85;9.27;;;;;;;24.72;75.36;100636.84;2086019;28;20428;-71
2022/09/01 03:14:46;;;;;;;21.15;11.25;;;;;;;24.69;75.54;100635.16;2091878;28;20075;-70
2022/09/01 03:16:09;;;;;;;17.30;8.95;;;;;;;24.67;75.55;100641.59;2085344;28;20125;-70
2022/09/01 03:17:31;;;;;;;17.33;9.30;;;;;;;24.63;75.48;100638.13;2091474;28;20420;-70
2022/09/01 03:18:53;;;;;;;21.42;9.63;;;;;;;24.62;75.83;100636.34;2085371;28;20140;-70
2022/09/01 03:20:20;;;;;;;17.75;9.32;;;;;;;24.65;75.61;100638.94;2088920;28;20036;-70
2022/09/01 03:21:44;;;;;;;18.98;10.05;;;;;;;24.66;75.48;100631.72;2087316;28;20045;-70
2022/09/01 03:23:09;;;;;;;20.10;10.20;;;;;;;24.69;75.45;100642.38;2084899;28;20513;-70
2022/09/01 03:24:33;;;;;;;17.10;9.52;;;;;;;24.70;75.52;100644.13;2088468;28;20369;-70
2022/09/01 03:25:54;;;;;;;15.30;8.50;;;;;;;24.69;75.66;100648.66;2085123;28;20124;-70
2022/09/01 03:27:17;;;;;;;18.67;8.90;;;;;;;24.68;75.65;100643.34;2083369;28;20057;-70
2022/09/01 03:28:40;;;;;;;18.08;9.65;;;;;;;24.67;75.31;100657.78;2092680;28;20029;-71
2022/09/01 03:30:02;;;;;;;18.23;8.95;;;;;;;24.63;75.54;100655.19;2093960;28;20056;-71
2022/09/01 03:31:27;;;;;;;17.48;8.88;;;;;;;24.62;75.65;100648.03;2090977;28;20559;-70
2022/09/01 03:32:50;;;;;;;19.77;8.82;;;;;;;24.60;75.92;100649.94;2085789;28;20390;-71
2022/09/01 03:34:15;;;;;;;17.77;9.23;;;;;;;24.60;75.77;100643.66;2091028;28;20741;-71
2022/09/01 03:35:43;;;;;;;16.10;9.70;;;;;;;24.60;75.92;100651.78;2086028;28;20045;-71
2022/09/01 03:37:08;;;;;;;13.27;9.98;;;;;;;24.59;75.75;100645.50;2085754;28;20053;-71
2022/09/01 03:38:31;;;;;;;20.63;10.88;;;;;;;24.60;75.89;100652.66;2085535;28;20742;-70
2022/09/01 03:39:53;;;;;;;21.60;11.25;;;;;;;24.58;75.97;100651.84;2082902;28;20366;-70
2022/09/01 03:41:18;;;;;;;12.65;9.35;;;;;;;24.58;75.95;100649.13;2091169;28;20491;-70
2022/09/01 03:42:39;;;;;;;20.20;9.73;;;;;;;24.58;75.78;100656.34;2094082;28;20075;-70
2022/09/01 03:44:04;;;;;;;16.65;10.07;;;;;;;24.58;75.77;100648.25;2085113;28;20152;-71
2022/09/01 03:45:28;;;;;;;18.08;9.30;;;;;;;24.57;75.54;100655.47;2083617;28;20045;-70
2022/09/01 03:46:51;;;;;;;16.92;7.97;;;;;;;24.56;75.98;100656.41;2099344;28;20484;-70
2022/09/01 03:48:15;;;;;;;16.60;8.60;;;;;;;24.54;76.03;100657.44;2093757;28;20056;-71
2022/09/01 03:49:39;;;;;;;18.30;8.70;;;;;;;24.51;76.12;100652.16;2089779;28;20114;-70
2022/09/01 03:51:01;;;;;;;13.45;9.18;;;;;;;24.50;75.92;100659.38;2085782;28;20041;-71
2022/09/01 03:52:28;;;;;;;13.27;8.70;;;;;;;24.48;76.20;100655.84;2090313;28;20404;-70
2022/09/01 03:53:53;;;;;;;17.67;9.13;;;;;;;24.48;76.03;100655.84;2085711;28;20068;-71
2022/09/01 03:55:22;;;;;;;15.13;9.25;;;;;;;24.49;75.99;100652.22;2091731;28;20044;-70
2022/09/01 03:56:46;;;;;;;16.42;9.05;;;;;;;24.49;76.42;100651.34;2086437;28;20049;-70
2022/09/01 03:58:17;;;;;;;14.43;8.82;;;;;;;24.49;76.10;100656.75;2092339;28;20045;-70
2022/09/01 03:59:44;;;;;;;17.63;9.20;;;;;;;24.43;76.19;100649.78;2101466;28;20051;-70
2022/09/01 04:01:08;;;;;;;17.23;9.20;;;;;;;24.41;76.36;100649.00;2087976;28;20471;-70
2022/09/01 04:02:29;;;;;;;19.88;9.68;;;;;;;24.42;76.57;100653.44;2087817;28;20533;-70
2022/09/01 04:03:52;;;;;;;16.27;9.60;;;;;;;24.44;76.61;100653.38;2082450;28;20418;-70
2022/09/01 04:05:23;;;;;;;17.63;9.88;;;;;;;24.47;76.63;100662.22;2095599;28;20427;-70
2022/09/01 04:06:47;;;;;;;20.10;9.25;;;;;;;24.49;76.57;100660.31;2094208;28;20519;-71
2022/09/01 04:08:11;;;;;;;14.65;9.73;;;;;;;24.54;76.64;100660.16;2087555;28;20105;-70
2022/09/01 04:09:35;;;;;;;19.52;9.43;;;;;;;24.56;76.68;100659.13;2085757;28;20110;-70
2022/09/01 04:10:59;;;;;;;17.45;10.45;;;;;;;24.60;76.32;100660.75;2091030;28;20342;-71
2022/09/01 04:12:21;;;;;;;18.48;9.68;;;;;;;24.63;76.56;100663.31;2093524;28;20496;-71
2022/09/01 04:13:47;;;;;;;16.55;9.50;;;;;;;24.68;76.35;100659.53;2094111;28;20033;-71
2022/09/01 04:15:12;;;;;;;18.42;9.95;;;;;;;24.72;76.33;100650.34;2088920;28;20560;-70
2022/09/01 04:18:20;;;;;;;15.00;9.27;;;;;;;24.76;75.87;100657.34;2095888;28;20435;-70
2022/09/01 04:19:43;;;;;;;21.05;8.68;;;;;;;24.79;75.92;100655.41;2101353;28;20048;-70
2022/09/01 04:21:07;;;;;;;;;;;;;;;24.80;75.95;100656.28;2093800;28;20122;-70
2022/09/01 04:22:31;;;;;;;15.88;9.38;;;;;;;24.84;75.71;100661.47;2094127;28;19920;-70
2022/09/01 04:23:56;;;;;;;18.08;9.38;;;;;;;24.90;75.51;100663.06;2092672;28;20397;-70
2022/09/01 04:25:22;;;;;;;16.55;8.90;;;;;;;24.95;75.41;100667.28;2092170;28;20094;-70
2022/09/01 04:26:46;;;;;;;18.45;8.82;;;;;;;24.99;75.64;100662.66;2093570;28;20048;-71
2022/09/01 04:28:21;;;;;;;15.35;8.07;;;;;;;25.04;75.34;100662.44;2093112;28;20037;-71
2022/09/01 04:29:45;;;;;;;14.25;7.70;;;;;;;25.11;75.39;100662.09;2097529;28;20072;-70
2022/09/01 04:31:13;;;;;;;17.58;9.20;;;;;;;25.16;75.37;100661.88;2093053;28;20512;-71
2022/09/01 04:32:36;;;;;;;16.23;8.70;;;;;;;25.18;75.12;100657.28;2087744;28;20061;-70
2022/09/01 04:34:00;;;;;;;18.50;8.80;;;;;;;25.24;74.85;100657.88;2096443;28;20048;-70
2022/09/01 04:35:26;;;;;;;16.38;7.75;;;;;;;25.27;74.68;100657.72;2095069;28;20041;-71
2022/09/01 04:36:53;;;;;;;15.82;8.32;;;;;;;25.32;74.80;100666.50;2097877;28;20400;-71
2022/09/01 04:38:16;;;;;;;15.52;8.02;;;;;;;25.39;74.81;100664.38;2086805;28;20626;-71
2022/09/01 04:39:39;;;;;;;19.15;7.97;;;;;;;25.42;74.74;100665.09;2089189;28;20190;-70
2022/09/01 04:41:05;;;;;;;;;;;;;;;25.48;74.47;100668.47;2088878;28;20069;-70
2022/09/01 04:42:31;;;;;;;18.50;9.70;;;;;;;25.60;74.62;100673.34;2096219;28;19930;-71
2022/09/01 04:43:56;;;;;;;19.77;8.40;;;;;;;25.70;74.35;100663.81;2092806;28;20052;-70
2022/09/01 04:45:24;;;;;;;12.90;8.18;;;;;;;25.82;74.21;100671.34;2102911;28;20035;-70
2022/09/01 04:46:49;;;;;;;11.13;8.00;;;;;;;25.91;74.03;100656.50;2089246;28;20053;-70
2022/09/01 04:48:13;;;;;;;15.40;7.88;;;;;;;26.04;73.80;100660.34;2092974;28;20071;-71
2022/09/01 04:49:36;;;;;;;15.98;8.02;;;;;;;26.18;73.54;100668.66;2092784;28;20083;-70
2022/09/01 04:50:59;;;;;;;16.13;7.75;;;;;;;26.27;73.33;100668.19;2086813;28;20060;-70
2022/09/01 04:52:22;;;;;;;15.75;7.10;;;;;;;26.36;73.09;100659.63;2084372;28;20493;-71
2022/09/01 04:53:47;;;;;;;13.00;7.90;;;;;;;26.47;72.79;100656.34;2094877;28;20037;-71
2022/09/01 04:55:16;;;;;;;17.38;7.88;;;;;;;26.60;72.66;100657.47;2089327;28;20055;-70
2022/09/01 04:56:40;;;;;;;15.32;6.60;;;;;;;26.73;72.31;100660.41;2094184;28;20131;-70
2022/09/01 04:58:09;;;;;;;14.60;7.00;;;;;;;26.86;72.06;100654.25;2095716;28;20113;-70
2022/09/01 04:59:34;;;;;;;15.27;6.25;;;;;;;26.98;71.56;100653.63;2091124;28;20036;-70
2022/09/01 05:00:59;;;;;;;14.52;6.55;;;;;;;27.11;71.26;100656.53;2084477;28;20166;-70
2022/09/01 05:02:25;;;;;;;12.60;6.38;;;;;;;27.26;71.04;100658.41;2086920;28;20168;-71
2022/09/01 05:04:00;;;;;;;13.82;6.10;;;;;;;27.41;70.78;100655.81;2085019;28;20036;-70
2022/09/01 05:05:52;;;;;;;18.02;6.30;;;;;;;27.57;70.36;100657.59;2090741;28;20048;-70
2022/09/01 05:07:16;;;;;;;12.60;6.22;;;;;;;27.72;69.97;100654.03;2088900;28;20444;-70
2022/09/01 05:08:38;;;;;;;13.75;6.97;;;;;;;27.85;69.75;100656.03;2084116;28;20045;-70
2022/09/01 05:10:08;;;;;;;14.07;6.00;;;;;;;27.97;69.46;100655.31;2085707;28;20135;-70
2022/09/01 05:12:09;;;;;;;13.27;6.25;;;;;;;28.13;69.37;100657.06;2098006;28;20049;-70
2022/09/01 05:13:34;;;;;;;13.68;5.70;;;;;;;28.31;69.08;100652.41;2087570;28;20701;-70
2022/09/01 05:14:56;;;;;;;14.90;6.10;;;;;;;28.49;68.79;100653.16;2084444;28;20025;-71
2022/09/01 05:16:22;;;;;;;16.50;6.10;;;;;;;28.65;68.17;100655.81;2083664;28;20501;-70
2022/09/01 05:17:46;;;;;;;16.42;6.45;;;;;;;28.80;67.37;100654.91;2085481;28;20047;-70
2022/09/01 05:19:13;;;;;;;10.07;6.43;;;;;;;28.91;66.79;100653.28;2087916;28;20049;-71
2022/09/01 05:20:41;;;;;;;17.38;6.60;;;;;;;28.93;66.16;100650.47;2088718;28;20049;-71
2022/09/01 05:22:07;;;;;;;11.02;5.93;;;;;;;28.85;66.14;100652.78;2088936;28;20052;-71
2022/09/01 05:23:32;;;;;;;12.93;5.75;;;;;;;28.75;65.81;100666.06;2086713;28;20044;-71
2022/09/01 05:24:55;;;;;;;12.55;5.82;;;;;;;28.78;66.08;100654.13;2084458;28;20386;-70
2022/09/01 05:26:21;;;;;;;13.30;6.43;;;;;;;28.97;65.59;100657.44;2083679;28;20103;-71
2022/09/01 05:27:48;;;;;;;11.32;6.10;;;;;;;29.25;65.30;100662.03;2085744;28;20048;-70
2022/09/01 05:29:16;;;;;;;11.35;5.43;;;;;;;29.51;64.63;100654.97;2093745;28;20397;-71
2022/09/01 05:30:41;;;;;;;9.60;5.28;;;;;;;29.80;63.86;100651.19;2093522;28;20577;-71
2022/09/01 05:32:07;;;;;;;13.23;5.25;;;;;;;29.94;63.38;100653.03;2086196;28;20049;-70
2022/09/01 05:33:33;;;;;;;14.82;6.15;;;;;;;29.98;63.07;100650.03;2100579;28;20043;-71
2022/09/01 05:34:56;;;;;;;10.90;6.30;;;;;;;29.85;62.53;100653.63;2094617;28;20136;-70
2022/09/01 05:36:19;;;;;;;12.20;5.90;;;;;;;29.65;62.62;100653.09;2097063;28;20079;-71
2022/09/01 05:37:42;;;;;;;12.45;6.05;;;;;;;29.43;62.58;100660.00;2092719;28;20098;-71
2022/09/01 05:39:06;;;;;;;11.80;5.95;;;;;;;29.16;62.47;100652.59;2088674;28;20179;-70
2022/09/01 05:40:28;;;;;;;14.93;5.82;;;;;;;28.99;62.89;100652.81;2086461;28;20056;-71
2022/09/01 05:41:52;;;;;;;17.15;6.40;;;;;;;28.98;63.26;100656.50;2090073;28;20048;-71
2022/09/01 05:43:16;;;;;;;12.05;6.05;;;;;;;29.02;63.06;100658.03;2089744;28;20052;-71
2022/09/01 05:44:42;;;;;;;12.35;6.28;;;;;;;29.02;63.31;100654.44;2100317;28;20047;-70
2022/09/01 05:46:07;;;;;;;11.75;6.13;;;;;;;29.12;63.19;100651.06;2088963;28;20049;-70
2022/09/01 05:47:36;;;;;;;11.00;5.72;;;;;;;29.16;63.02;100655.31;2087980;28;20566;-71
2022/09/01 05:49:01;;;;;;;16.33;6.57;;;;;;;29.24;63.05;100649.41;2095306;28;20546;-71
2022/09/01 05:50:27;;;;;;;14.15;6.15;;;;;;;29.49;62.75;100656.91;2090189;28;20057;-70
2022/09/01 05:51:53;;;;;;;14.60;6.18;;;;;;;29.80;61.94;100651.19;2084437;28;20396;-71
2022/09/01 05:53:16;;;;;;;12.43;6.13;;;;;;;30.06;61.49;100655.81;2087264;28;20160;-70
2022/09/01 05:54:40;;;;;;;14.80;6.30;;;;;;;30.28;61.14;100654.38;2088390;28;20044;-71
2022/09/01 05:56:08;;;;;;;11.52;5.90;;;;;;;30.44;60.41;100657.81;2083650;28;20531;-71
2022/09/01 05:57:34;;;;;;;11.73;5.18;;;;;;;30.29;60.34;100653.41;2087505;28;20086;-70
2022/09/01 05:58:58;;;;;;;11.48;5.82;;;;;;;30.07;60.33;100657.56;2090384;28;20041;-70
2022/09/01 06:00:22;;;;;;;14.82;5.55;;;;;;;29.91;60.97;100656.81;2090376;28;20143;-71
2022/09/01 06:01:46;;;;;;;12.38;5.00;;;;;;;30.00;60.87;100656.22;2085760;28;20048;-71
2022/09/01 06:03:10;;;;;;;13.98;5.07;;;;;;;30.05;60.70;100659.53;2083644;28;20086;-71
2022/09/01 06:04:42;;;;;;;12.25;5.40;;;;;;;30.06;60.30;100663.13;2095164;28;20127;-71
2022/09/01 06:06:11;;;;;;;12.70;5.60;;;;;;;29.99;60.19;100659.06;2084654;28;20035;-71
2022/09/01 06:07:36;;;;;;;11.07;5.22;;;;;;;29.97;60.12;100655.56;2087787;28;20056;-71
2022/09/01 06:09:01;;;;;;;11.93;5.88;;;;;;;29.91;60.19;100659.53;2083755;28;20448;-70
2022/09/01 06:10:23;;;;;;;16.17;5.95;;;;;;;29.80;60.09;100653.06;2084576;28;20088;-71
2022/09/01 06:11:47;;;;;;;14.50;5.63;;;;;;;29.64;60.04;100655.91;2089968;28;20056;-71
2022/09/01 06:13:10;;;;;;;13.70;6.40;;;;;;;29.47;60.04;100656.97;2097501;28;20101;-71
2022/09/01 06:14:33;;;;;;;16.88;6.30;;;;;;;29.38;60.24;100663.03;2101584;28;20051;-71
2022/09/01 06:15:57;;;;;;;14.18;5.65;;;;;;;29.64;60.28;100664.94;2087518;28;20049;-71
2022/09/01 06:17:23;;;;;;;12.02;5.40;;;;;;;30.10;60.10;100661.94;2079310;28;20061;-70
2022/09/01 06:18:47;;;;;;;13.07;6.00;;;;;;;30.42;59.30;100657.91;2085025;28;20053;-71
2022/09/01 06:20:10;;;;;;;14.00;5.63;;;;;;;30.47;58.88;100658.44;2083866;28;20052;-71
2022/09/01 06:21:34;;;;;;;14.50;6.18;;;;;;;30.57;58.77;100664.19;2083742;28;20106;-71
2022/09/01 06:22:57;;;;;;;10.18;4.43;;;;;;;30.57;57.97;100661.47;2085234;28;20124;-71
2022/09/01 06:24:20;;;;;;;12.63;5.13;;;;;;;30.48;58.13;100662.06;2082678;28;20049;-71
2022/09/01 06:25:45;;;;;;;14.40;5.43;;;;;;;30.48;57.92;100660.19;2085256;28;20048;-71
2022/09/01 06:27:10;;;;;;;14.63;6.13;;;;;;;30.56;57.84;100661.56;2084261;28;20079;-71
2022/09/01 06:28:32;;;;;;;13.18;5.00;;;;;;;30.66;57.64;100663.53;2088494;28;20036;-71
2022/09/01 06:29:56;;;;;;;12.30;5.28;;;;;;;30.62;57.45;100659.28;2092039;28;20068;-71
2022/09/01 06:31:19;;;;;;;11.77;4.68;;;;;;;30.48;57.65;100662.06;2087572;28;20045;-71
2022/09/01 06:32:44;;;;;;;14.90;5.75;;;;;;;30.25;57.29;100663.63;2098879;28;20050;-71
2022/09/01 06:34:16;;;;;;;13.18;5.60;;;;;;;29.91;57.46;100662.25;2091983;28;20078;-71